This is the latest recevied weather packets stored in our database for station/object IZ1CYF-13. If no packets are shown the sender has not sent any weather packets the latest 10 day(s).
| Time | Temp. | Humidity | Pressure | Rain* | Wind** | Luminosity | Snow |
|---|---|---|---|---|---|---|---|
| 1777906131 | 20.56° C | 41% | 1017.8 hPa | - | - | - | - |
| 1777902547 | 20° C | 43% | 1018.1 hPa | - | - | - | - |
| 1777897732 | 20.56° C | 40% | 1018.6 hPa | - | - | - | - |
| 1777882731 | 21.67° C | 42% | 1018.6 hPa | - | - | - | - |
| 1777882137 | 21.67° C | 43% | 1018.7 hPa | - | - | - | - |
| 1777881597 | 20.56° C | 45% | 1018.7 hPa | - | - | - | - |
| 1777880932 | 20.56° C | 46% | 1018.6 hPa | - | - | - | - |
| 1777879736 | 19.44° C | 52% | 1018.9 hPa | - | - | - | - |
| 1777876733 | 20.56° C | 44% | 1017.8 hPa | - | - | - | - |
| 1777874332 | 20.56° C | 44% | 1017.6 hPa | - | - | - | - |
| 1777871352 | 18.33° C | 46% | 1018.1 hPa | - | - | - | - |
| 1777864736 | 20.56° C | 41% | 1017.2 hPa | - | - | - | - |
| 1777864153 | 20° C | 43% | 1017.4 hPa | - | - | - | - |
| 1777861136 | 17.78° C | 47% | 1018.4 hPa | - | - | - | - |
| 1777859936 | 19.44° C | 44% | 1017.8 hPa | - | - | - | - |
| 1777856336 | 16.67° C | 51% | 1018.8 hPa | - | - | - | - |
| 1777855136 | 19.44° C | 44% | 1018.1 hPa | - | - | - | - |
| 1777854533 | 20.56° C | 42% | 1018 hPa | - | - | - | - |
| 1777853346 | 18.89° C | 45% | 1018.4 hPa | - | - | - | - |
| 1777852736 | 20° C | 43% | 1018.3 hPa | - | - | - | - |
| 1777849756 | 20.56° C | 42% | 1018.2 hPa | - | - | - | - |
| 1777842579 | 21.11° C | 41% | 1018.2 hPa | - | - | - | - |
| 1777828733 | 21.11° C | 43% | 1017.6 hPa | - | - | - | - |
| 1777825133 | 22.22° C | 36% | 1017.2 hPa | - | - | - | - |
| 1777819734 | 22.78° C | 34% | 1017.7 hPa | - | - | - | - |
* Rain since midnight (hover to see other rain measurements)
** Current wind speed in m/s (hover to see current wind gust speed)